sensor_id;sensor_type;location;lat;lon;timestamp;P1;durP1;ratioP1;P2;durP2;ratioP2
27003;SDS011;14546;47.590;19.022;2022-11-18T00:01:13;44.60;;;28.25;;
27003;SDS011;14546;47.590;19.022;2022-11-18T00:03:39;42.88;;;28.05;;
27003;SDS011;14546;47.590;19.022;2022-11-18T00:06:06;44.90;;;29.27;;
27003;SDS011;14546;47.590;19.022;2022-11-18T00:08:33;46.08;;;29.60;;
27003;SDS011;14546;47.590;19.022;2022-11-18T00:11:21;47.10;;;29.08;;
27003;SDS011;14546;47.590;19.022;2022-11-18T00:14:04;49.25;;;29.45;;
27003;SDS011;14546;47.590;19.022;2022-11-18T00:16:42;52.95;;;29.95;;
27003;SDS011;14546;47.590;19.022;2022-11-18T00:19:09;46.05;;;29.83;;
27003;SDS011;14546;47.590;19.022;2022-11-18T00:21:35;48.08;;;29.08;;
27003;SDS011;14546;47.590;19.022;2022-11-18T00:24:00;45.42;;;29.77;;
27003;SDS011;14546;47.590;19.022;2022-11-18T00:26:26;52.50;;;30.55;;
27003;SDS011;14546;47.590;19.022;2022-11-18T00:28:52;51.38;;;30.98;;
27003;SDS011;14546;47.590;19.022;2022-11-18T00:31:18;52.65;;;30.58;;
27003;SDS011;14546;47.590;19.022;2022-11-18T00:33:44;48.55;;;30.05;;
27003;SDS011;14546;47.590;19.022;2022-11-18T00:36:10;51.28;;;30.52;;
27003;SDS011;14546;47.590;19.022;2022-11-18T00:38:37;44.60;;;28.02;;
27003;SDS011;14546;47.590;19.022;2022-11-18T00:41:04;42.53;;;28.10;;
27003;SDS011;14546;47.590;19.022;2022-11-18T00:43:30;42.67;;;27.65;;
27003;SDS011;14546;47.590;19.022;2022-11-18T00:45:57;45.60;;;28.77;;
27003;SDS011;14546;47.590;19.022;2022-11-18T00:48:23;41.95;;;26.25;;
27003;SDS011;14546;47.590;19.022;2022-11-18T00:50:50;41.63;;;25.90;;
27003;SDS011;14546;47.590;19.022;2022-11-18T00:53:16;42.38;;;26.20;;
27003;SDS011;14546;47.590;19.022;2022-11-18T00:55:43;41.15;;;25.88;;
27003;SDS011;14546;47.590;19.022;2022-11-18T00:58:09;43.00;;;26.73;;
27003;SDS011;14546;47.590;19.022;2022-11-18T01:00:38;50.90;;;29.33;;
27003;SDS011;14546;47.590;19.022;2022-11-18T01:03:04;55.33;;;31.98;;
27003;SDS011;14546;47.590;19.022;2022-11-18T01:05:30;49.65;;;30.70;;
27003;SDS011;14546;47.590;19.022;2022-11-18T01:07:56;61.17;;;33.20;;
27003;SDS011;14546;47.590;19.022;2022-11-18T01:10:22;58.03;;;34.40;;
27003;SDS011;14546;47.590;19.022;2022-11-18T01:12:48;58.60;;;32.25;;
27003;SDS011;14546;47.590;19.022;2022-11-18T01:15:42;53.83;;;31.77;;
27003;SDS011;14546;47.590;19.022;2022-11-18T01:18:09;54.97;;;32.38;;
27003;SDS011;14546;47.590;19.022;2022-11-18T01:20:35;58.92;;;33.38;;
27003;SDS011;14546;47.590;19.022;2022-11-18T01:23:01;51.10;;;30.33;;
27003;SDS011;14546;47.590;19.022;2022-11-18T01:25:27;51.35;;;29.88;;
27003;SDS011;14546;47.590;19.022;2022-11-18T01:27:54;48.15;;;29.83;;
27003;SDS011;14546;47.590;19.022;2022-11-18T01:30:20;53.67;;;31.23;;
27003;SDS011;14546;47.590;19.022;2022-11-18T01:32:46;52.10;;;32.33;;
27003;SDS011;14546;47.590;19.022;2022-11-18T01:35:13;56.97;;;32.35;;
27003;SDS011;14546;47.590;19.022;2022-11-18T01:37:39;54.97;;;31.20;;
27003;SDS011;14546;47.590;19.022;2022-11-18T01:40:06;50.28;;;30.88;;
27003;SDS011;14546;47.590;19.022;2022-11-18T01:42:32;54.30;;;32.15;;
27003;SDS011;14546;47.590;19.022;2022-11-18T01:47:42;53.85;;;33.10;;
27003;SDS011;14546;47.590;19.022;2022-11-18T01:50:10;54.30;;;32.92;;
27003;SDS011;14546;47.590;19.022;2022-11-18T01:52:37;49.72;;;32.88;;
27003;SDS011;14546;47.590;19.022;2022-11-18T01:55:06;50.83;;;31.00;;
27003;SDS011;14546;47.590;19.022;2022-11-18T01:57:35;49.75;;;31.35;;
27003;SDS011;14546;47.590;19.022;2022-11-18T02:00:03;43.95;;;28.90;;
27003;SDS011;14546;47.590;19.022;2022-11-18T02:02:30;49.97;;;30.70;;
27003;SDS011;14546;47.590;19.022;2022-11-18T02:04:57;51.15;;;30.17;;
27003;SDS011;14546;47.590;19.022;2022-11-18T02:07:23;47.50;;;30.90;;
27003;SDS011;14546;47.590;19.022;2022-11-18T02:09:50;48.28;;;29.88;;
27003;SDS011;14546;47.590;19.022;2022-11-18T02:12:17;49.00;;;29.67;;
27003;SDS011;14546;47.590;19.022;2022-11-18T02:14:44;45.75;;;28.45;;
27003;SDS011;14546;47.590;19.022;2022-11-18T02:25:04;53.00;;;31.73;;
27003;SDS011;14546;47.590;19.022;2022-11-18T02:29:59;74.30;;;35.97;;
27003;SDS011;14546;47.590;19.022;2022-11-18T02:32:38;69.13;;;38.42;;
27003;SDS011;14546;47.590;19.022;2022-11-18T02:40:15;69.00;;;40.33;;
27003;SDS011;14546;47.590;19.022;2022-11-18T02:42:43;87.78;;;43.22;;
27003;SDS011;14546;47.590;19.022;2022-11-18T02:45:14;253.07;;;59.83;;
27003;SDS011;14546;47.590;19.022;2022-11-18T02:47:42;114.55;;;54.58;;
27003;SDS011;14546;47.590;19.022;2022-11-18T02:50:10;100.80;;;52.05;;
27003;SDS011;14546;47.590;19.022;2022-11-18T02:52:36;164.02;;;54.85;;
27003;SDS011;14546;47.590;19.022;2022-11-18T02:55:04;210.52;;;60.80;;
27003;SDS011;14546;47.590;19.022;2022-11-18T02:57:31;195.10;;;61.35;;
27003;SDS011;14546;47.590;19.022;2022-11-18T02:59:58;297.58;;;65.70;;
27003;SDS011;14546;47.590;19.022;2022-11-18T03:02:24;681.88;;;87.38;;
27003;SDS011;14546;47.590;19.022;2022-11-18T03:04:51;251.30;;;63.15;;
27003;SDS011;14546;47.590;19.022;2022-11-18T03:07:21;423.63;;;71.32;;
27003;SDS011;14546;47.590;19.022;2022-11-18T03:09:49;185.07;;;60.95;;
27003;SDS011;14546;47.590;19.022;2022-11-18T03:15:04;205.07;;;59.10;;
27003;SDS011;14546;47.590;19.022;2022-11-18T03:20:09;362.60;;;68.47;;
27003;SDS011;14546;47.590;19.022;2022-11-18T03:25:09;158.63;;;59.58;;
27003;SDS011;14546;47.590;19.022;2022-11-18T03:27:59;403.65;;;73.15;;
27003;SDS011;14546;47.590;19.022;2022-11-18T03:30:22;262.25;;;65.72;;
27003;SDS011;14546;47.590;19.022;2022-11-18T03:33:11;204.10;;;60.30;;
27003;SDS011;14546;47.590;19.022;2022-11-18T03:35:36;155.95;;;55.33;;
27003;SDS011;14546;47.590;19.022;2022-11-18T03:38:07;347.10;;;67.38;;
27003;SDS011;14546;47.590;19.022;2022-11-18T03:40:36;119.07;;;52.88;;
27003;SDS011;14546;47.590;19.022;2022-11-18T03:43:05;451.65;;;62.15;;
27003;SDS011;14546;47.590;19.022;2022-11-18T03:45:35;309.17;;;59.72;;
27003;SDS011;14546;47.590;19.022;2022-11-18T03:48:35;448.45;;;58.55;;
27003;SDS011;14546;47.590;19.022;2022-11-18T03:50:55;118.05;;;49.83;;
27003;SDS011;14546;47.590;19.022;2022-11-18T03:53:22;93.65;;;43.88;;
27003;SDS011;14546;47.590;19.022;2022-11-18T03:55:50;105.53;;;45.35;;
27003;SDS011;14546;47.590;19.022;2022-11-18T03:58:23;127.95;;;45.80;;
27003;SDS011;14546;47.590;19.022;2022-11-18T04:03:17;124.32;;;42.30;;
27003;SDS011;14546;47.590;19.022;2022-11-18T04:05:43;123.72;;;45.13;;
27003;SDS011;14546;47.590;19.022;2022-11-18T04:08:13;136.20;;;47.72;;
27003;SDS011;14546;47.590;19.022;2022-11-18T04:10:43;137.38;;;47.42;;
27003;SDS011;14546;47.590;19.022;2022-11-18T04:13:13;112.10;;;46.63;;
27003;SDS011;14546;47.590;19.022;2022-11-18T04:15:40;92.20;;;45.08;;
27003;SDS011;14546;47.590;19.022;2022-11-18T04:18:07;200.32;;;54.65;;
27003;SDS011;14546;47.590;19.022;2022-11-18T04:20:33;143.68;;;52.10;;
27003;SDS011;14546;47.590;19.022;2022-11-18T04:23:01;138.13;;;50.38;;
27003;SDS011;14546;47.590;19.022;2022-11-18T04:25:27;121.55;;;51.72;;
27003;SDS011;14546;47.590;19.022;2022-11-18T04:27:52;335.92;;;66.68;;
27003;SDS011;14546;47.590;19.022;2022-11-18T04:30:19;139.95;;;51.33;;
27003;SDS011;14546;47.590;19.022;2022-11-18T04:32:45;366.60;;;63.92;;
27003;SDS011;14546;47.590;19.022;2022-11-18T04:35:11;129.10;;;51.08;;
27003;SDS011;14546;47.590;19.022;2022-11-18T04:37:37;163.32;;;54.03;;
27003;SDS011;14546;47.590;19.022;2022-11-18T04:40:03;227.77;;;57.05;;
27003;SDS011;14546;47.590;19.022;2022-11-18T04:42:29;427.15;;;70.22;;
27003;SDS011;14546;47.590;19.022;2022-11-18T04:44:55;138.52;;;53.88;;
27003;SDS011;14546;47.590;19.022;2022-11-18T04:47:21;448.73;;;68.72;;
27003;SDS011;14546;47.590;19.022;2022-11-18T04:49:47;344.08;;;68.53;;
27003;SDS011;14546;47.590;19.022;2022-11-18T04:52:13;295.30;;;58.78;;
27003;SDS011;14546;47.590;19.022;2022-11-18T04:54:39;310.83;;;58.28;;
27003;SDS011;14546;47.590;19.022;2022-11-18T04:57:05;454.92;;;68.63;;
27003;SDS011;14546;47.590;19.022;2022-11-18T04:59:31;289.40;;;60.13;;
27003;SDS011;14546;47.590;19.022;2022-11-18T05:01:57;351.05;;;66.40;;
27003;SDS011;14546;47.590;19.022;2022-11-18T05:04:26;336.17;;;61.92;;
27003;SDS011;14546;47.590;19.022;2022-11-18T05:06:53;162.05;;;56.47;;
27003;SDS011;14546;47.590;19.022;2022-11-18T05:09:20;420.85;;;69.70;;
27003;SDS011;14546;47.590;19.022;2022-11-18T05:11:46;452.38;;;69.10;;
27003;SDS011;14546;47.590;19.022;2022-11-18T05:14:30;160.95;;;55.80;;
27003;SDS011;14546;47.590;19.022;2022-11-18T05:16:57;263.95;;;62.67;;
27003;SDS011;14546;47.590;19.022;2022-11-18T05:19:23;265.17;;;60.17;;
27003;SDS011;14546;47.590;19.022;2022-11-18T05:21:49;417.30;;;68.25;;
27003;SDS011;14546;47.590;19.022;2022-11-18T05:24:15;213.95;;;59.03;;
27003;SDS011;14546;47.590;19.022;2022-11-18T05:26:41;220.05;;;62.63;;
27003;SDS011;14546;47.590;19.022;2022-11-18T05:29:08;190.23;;;57.35;;
27003;SDS011;14546;47.590;19.022;2022-11-18T05:31:34;411.05;;;67.35;;
27003;SDS011;14546;47.590;19.022;2022-11-18T05:34:00;191.57;;;57.22;;
27003;SDS011;14546;47.590;19.022;2022-11-18T05:36:26;171.45;;;57.45;;
27003;SDS011;14546;47.590;19.022;2022-11-18T05:38:52;500.48;;;71.43;;
27003;SDS011;14546;47.590;19.022;2022-11-18T05:41:18;530.70;;;72.25;;
27003;SDS011;14546;47.590;19.022;2022-11-18T05:44:13;178.95;;;54.05;;
27003;SDS011;14546;47.590;19.022;2022-11-18T05:46:40;211.63;;;56.45;;
27003;SDS011;14546;47.590;19.022;2022-11-18T05:49:06;250.60;;;58.75;;
27003;SDS011;14546;47.590;19.022;2022-11-18T05:51:32;253.88;;;59.08;;
27003;SDS011;14546;47.590;19.022;2022-11-18T05:53:58;184.00;;;55.20;;
27003;SDS011;14546;47.590;19.022;2022-11-18T05:56:27;332.73;;;59.58;;
27003;SDS011;14546;47.590;19.022;2022-11-18T05:58:54;194.38;;;54.40;;
27003;SDS011;14546;47.590;19.022;2022-11-18T06:01:21;235.75;;;58.20;;
27003;SDS011;14546;47.590;19.022;2022-11-18T06:03:49;218.05;;;56.85;;
27003;SDS011;14546;47.590;19.022;2022-11-18T06:06:16;422.17;;;63.63;;
27003;SDS011;14546;47.590;19.022;2022-11-18T06:08:46;285.83;;;55.58;;
27003;SDS011;14546;47.590;19.022;2022-11-18T06:11:14;248.82;;;55.63;;
27003;SDS011;14546;47.590;19.022;2022-11-18T06:14:02;145.60;;;52.45;;
27003;SDS011;14546;47.590;19.022;2022-11-18T06:16:30;416.55;;;60.03;;
27003;SDS011;14546;47.590;19.022;2022-11-18T06:18:57;268.25;;;59.13;;
27003;SDS011;14546;47.590;19.022;2022-11-18T06:21:23;222.82;;;55.75;;
27003;SDS011;14546;47.590;19.022;2022-11-18T06:23:49;187.20;;;52.90;;
27003;SDS011;14546;47.590;19.022;2022-11-18T06:26:15;314.00;;;59.08;;
27003;SDS011;14546;47.590;19.022;2022-11-18T06:28:43;320.30;;;61.55;;
27003;SDS011;14546;47.590;19.022;2022-11-18T06:31:10;429.00;;;66.07;;
27003;SDS011;14546;47.590;19.022;2022-11-18T06:33:36;208.18;;;54.33;;
27003;SDS011;14546;47.590;19.022;2022-11-18T06:36:02;340.35;;;61.80;;
27003;SDS011;14546;47.590;19.022;2022-11-18T06:38:28;302.05;;;58.38;;
27003;SDS011;14546;47.590;19.022;2022-11-18T06:40:57;559.40;;;70.18;;
27003;SDS011;14546;47.590;19.022;2022-11-18T06:43:24;463.27;;;64.10;;
27003;SDS011;14546;47.590;19.022;2022-11-18T06:46:12;581.70;;;74.07;;
27003;SDS011;14546;47.590;19.022;2022-11-18T06:48:57;349.35;;;63.50;;
27003;SDS011;14546;47.590;19.022;2022-11-18T06:51:23;388.50;;;66.28;;
27003;SDS011;14546;47.590;19.022;2022-11-18T06:53:49;236.63;;;57.35;;
27003;SDS011;14546;47.590;19.022;2022-11-18T06:56:15;611.50;;;74.50;;
27003;SDS011;14546;47.590;19.022;2022-11-18T06:58:42;510.85;;;68.13;;
27003;SDS011;14546;47.590;19.022;2022-11-18T07:01:09;311.42;;;62.80;;
27003;SDS011;14546;47.590;19.022;2022-11-18T07:03:36;395.17;;;64.22;;
27003;SDS011;14546;47.590;19.022;2022-11-18T07:06:02;552.47;;;67.13;;
27003;SDS011;14546;47.590;19.022;2022-11-18T07:08:28;249.02;;;58.53;;
27003;SDS011;14546;47.590;19.022;2022-11-18T07:10:54;386.83;;;63.92;;
27003;SDS011;14546;47.590;19.022;2022-11-18T07:13:20;463.67;;;66.47;;
27003;SDS011;14546;47.590;19.022;2022-11-18T07:15:46;342.67;;;61.10;;
27003;SDS011;14546;47.590;19.022;2022-11-18T07:18:12;288.60;;;65.57;;
27003;SDS011;14546;47.590;19.022;2022-11-18T07:20:38;411.33;;;65.50;;
27003;SDS011;14546;47.590;19.022;2022-11-18T07:23:04;642.33;;;73.25;;
27003;SDS011;14546;47.590;19.022;2022-11-18T07:25:30;301.70;;;61.83;;
27003;SDS011;14546;47.590;19.022;2022-11-18T07:27:57;168.40;;;55.22;;
27003;SDS011;14546;47.590;19.022;2022-11-18T07:30:23;177.93;;;54.85;;
27003;SDS011;14546;47.590;19.022;2022-11-18T07:32:49;481.02;;;73.68;;
27003;SDS011;14546;47.590;19.022;2022-11-18T07:35:15;376.75;;;63.35;;
27003;SDS011;14546;47.590;19.022;2022-11-18T07:37:42;507.13;;;66.43;;
27003;SDS011;14546;47.590;19.022;2022-11-18T07:40:09;239.85;;;56.75;;
27003;SDS011;14546;47.590;19.022;2022-11-18T07:42:35;451.65;;;63.40;;
27003;SDS011;14546;47.590;19.022;2022-11-18T07:45:09;413.63;;;63.65;;
27003;SDS011;14546;47.590;19.022;2022-11-18T07:47:36;294.27;;;58.67;;
27003;SDS011;14546;47.590;19.022;2022-11-18T07:50:03;712.63;;;72.22;;
27003;SDS011;14546;47.590;19.022;2022-11-18T07:52:29;544.05;;;67.53;;
27003;SDS011;14546;47.590;19.022;2022-11-18T07:54:55;261.30;;;56.28;;
27003;SDS011;14546;47.590;19.022;2022-11-18T07:57:21;726.45;;;75.85;;
27003;SDS011;14546;47.590;19.022;2022-11-18T07:59:47;318.33;;;55.65;;
27003;SDS011;14546;47.590;19.022;2022-11-18T08:02:12;422.30;;;62.78;;
27003;SDS011;14546;47.590;19.022;2022-11-18T08:04:38;482.30;;;60.42;;
27003;SDS011;14546;47.590;19.022;2022-11-18T08:07:04;275.02;;;52.58;;
27003;SDS011;14546;47.590;19.022;2022-11-18T08:09:33;257.35;;;53.45;;
27003;SDS011;14546;47.590;19.022;2022-11-18T08:11:59;324.73;;;57.42;;
27003;SDS011;14546;47.590;19.022;2022-11-18T08:14:26;444.63;;;59.30;;
27003;SDS011;14546;47.590;19.022;2022-11-18T08:16:52;238.02;;;53.47;;
27003;SDS011;14546;47.590;19.022;2022-11-18T08:19:18;450.48;;;62.22;;
27003;SDS011;14546;47.590;19.022;2022-11-18T08:21:44;154.68;;;50.70;;
27003;SDS011;14546;47.590;19.022;2022-11-18T08:24:10;394.08;;;56.78;;
27003;SDS011;14546;47.590;19.022;2022-11-18T08:26:36;173.50;;;51.42;;
27003;SDS011;14546;47.590;19.022;2022-11-18T08:29:02;106.22;;;46.55;;
27003;SDS011;14546;47.590;19.022;2022-11-18T08:31:29;112.00;;;45.85;;
27003;SDS011;14546;47.590;19.022;2022-11-18T08:33:55;115.22;;;46.53;;
27003;SDS011;14546;47.590;19.022;2022-11-18T08:36:22;122.28;;;45.78;;
27003;SDS011;14546;47.590;19.022;2022-11-18T08:38:48;120.05;;;46.85;;
27003;SDS011;14546;47.590;19.022;2022-11-18T08:41:15;120.57;;;45.67;;
27003;SDS011;14546;47.590;19.022;2022-11-18T08:43:42;106.43;;;43.88;;
27003;SDS011;14546;47.590;19.022;2022-11-18T08:46:08;107.03;;;44.83;;
27003;SDS011;14546;47.590;19.022;2022-11-18T08:48:34;94.72;;;42.05;;
27003;SDS011;14546;47.590;19.022;2022-11-18T08:51:00;90.63;;;41.85;;
27003;SDS011;14546;47.590;19.022;2022-11-18T08:53:26;91.80;;;42.50;;
27003;SDS011;14546;47.590;19.022;2022-11-18T08:55:56;91.13;;;42.65;;
27003;SDS011;14546;47.590;19.022;2022-11-18T08:58:22;99.68;;;43.28;;
27003;SDS011;14546;47.590;19.022;2022-11-18T09:00:48;99.25;;;43.72;;
27003;SDS011;14546;47.590;19.022;2022-11-18T09:03:14;87.35;;;41.53;;
27003;SDS011;14546;47.590;19.022;2022-11-18T09:05:40;94.97;;;41.50;;
27003;SDS011;14546;47.590;19.022;2022-11-18T09:08:06;95.63;;;42.72;;
27003;SDS011;14546;47.590;19.022;2022-11-18T09:10:32;94.07;;;41.30;;
27003;SDS011;14546;47.590;19.022;2022-11-18T09:12:58;93.20;;;40.88;;
27003;SDS011;14546;47.590;19.022;2022-11-18T09:15:24;81.50;;;37.08;;
27003;SDS011;14546;47.590;19.022;2022-11-18T09:17:51;89.22;;;36.53;;
27003;SDS011;14546;47.590;19.022;2022-11-18T09:20:17;91.10;;;38.88;;
27003;SDS011;14546;47.590;19.022;2022-11-18T09:22:43;96.43;;;39.17;;
27003;SDS011;14546;47.590;19.022;2022-11-18T09:25:09;85.35;;;38.97;;
27003;SDS011;14546;47.590;19.022;2022-11-18T09:27:35;97.35;;;42.47;;
27003;SDS011;14546;47.590;19.022;2022-11-18T09:30:01;98.68;;;41.53;;
27003;SDS011;14546;47.590;19.022;2022-11-18T09:32:27;90.15;;;40.88;;
27003;SDS011;14546;47.590;19.022;2022-11-18T09:34:53;85.80;;;39.40;;
27003;SDS011;14546;47.590;19.022;2022-11-18T09:37:19;86.18;;;39.33;;
27003;SDS011;14546;47.590;19.022;2022-11-18T09:39:46;89.25;;;41.00;;
27003;SDS011;14546;47.590;19.022;2022-11-18T09:44:54;85.15;;;37.85;;
27003;SDS011;14546;47.590;19.022;2022-11-18T09:47:27;84.38;;;37.42;;
27003;SDS011;14546;47.590;19.022;2022-11-18T09:50:04;85.63;;;35.30;;
27003;SDS011;14546;47.590;19.022;2022-11-18T09:52:40;76.03;;;34.05;;
27003;SDS011;14546;47.590;19.022;2022-11-18T09:55:12;81.68;;;34.20;;
27003;SDS011;14546;47.590;19.022;2022-11-18T09:57:40;67.65;;;31.77;;
27003;SDS011;14546;47.590;19.022;2022-11-18T10:00:18;63.78;;;32.70;;
27003;SDS011;14546;47.590;19.022;2022-11-18T10:02:54;67.55;;;33.83;;
27003;SDS011;14546;47.590;19.022;2022-11-18T10:05:26;69.28;;;32.78;;
27003;SDS011;14546;47.590;19.022;2022-11-18T10:13:08;64.30;;;33.85;;
27003;SDS011;14546;47.590;19.022;2022-11-18T10:15:35;65.97;;;32.95;;
27003;SDS011;14546;47.590;19.022;2022-11-18T10:20:35;63.78;;;33.17;;
27003;SDS011;14546;47.590;19.022;2022-11-18T10:23:14;72.43;;;34.90;;
27003;SDS011;14546;47.590;19.022;2022-11-18T10:25:41;66.15;;;33.67;;
27003;SDS011;14546;47.590;19.022;2022-11-18T10:28:20;57.60;;;32.03;;
27003;SDS011;14546;47.590;19.022;2022-11-18T10:30:46;66.57;;;32.70;;
27003;SDS011;14546;47.590;19.022;2022-11-18T10:35:47;62.15;;;32.47;;
27003;SDS011;14546;47.590;19.022;2022-11-18T10:40:43;70.35;;;33.80;;
27003;SDS011;14546;47.590;19.022;2022-11-18T10:43:10;62.95;;;31.98;;
27003;SDS011;14546;47.590;19.022;2022-11-18T10:45:38;68.03;;;32.45;;
27003;SDS011;14546;47.590;19.022;2022-11-18T10:53:06;62.03;;;31.88;;
27003;SDS011;14546;47.590;19.022;2022-11-18T10:56:24;69.25;;;31.17;;
27003;SDS011;14546;47.590;19.022;2022-11-18T10:58:47;62.70;;;30.45;;
27003;SDS011;14546;47.590;19.022;2022-11-18T11:03:41;61.55;;;31.17;;
27003;SDS011;14546;47.590;19.022;2022-11-18T11:06:17;56.25;;;29.85;;
27003;SDS011;14546;47.590;19.022;2022-11-18T11:08:58;55.90;;;29.95;;
27003;SDS011;14546;47.590;19.022;2022-11-18T11:11:25;59.13;;;29.55;;
27003;SDS011;14546;47.590;19.022;2022-11-18T11:14:16;50.22;;;28.27;;
27003;SDS011;14546;47.590;19.022;2022-11-18T11:16:47;42.88;;;26.38;;
27003;SDS011;14546;47.590;19.022;2022-11-18T11:19:16;46.33;;;26.38;;
27003;SDS011;14546;47.590;19.022;2022-11-18T11:21:43;46.03;;;25.85;;
27003;SDS011;14546;47.590;19.022;2022-11-18T11:24:10;46.72;;;26.98;;
27003;SDS011;14546;47.590;19.022;2022-11-18T11:31:47;48.38;;;28.88;;
27003;SDS011;14546;47.590;19.022;2022-11-18T11:37:02;52.58;;;29.88;;
27003;SDS011;14546;47.590;19.022;2022-11-18T11:39:45;53.03;;;30.05;;
27003;SDS011;14546;47.590;19.022;2022-11-18T11:42:33;47.28;;;30.10;;
27003;SDS011;14546;47.590;19.022;2022-11-18T11:47:37;46.78;;;26.52;;
27003;SDS011;14546;47.590;19.022;2022-11-18T11:58:34;56.63;;;30.88;;
27003;SDS011;14546;47.590;19.022;2022-11-18T12:00:40;55.40;;;28.77;;
27003;SDS011;14546;47.590;19.022;2022-11-18T12:05:44;47.60;;;26.95;;
27003;SDS011;14546;47.590;19.022;2022-11-18T12:08:15;47.85;;;26.52;;
27003;SDS011;14546;47.590;19.022;2022-11-18T12:10:47;50.97;;;25.92;;
27003;SDS011;14546;47.590;19.022;2022-11-18T12:15:59;44.97;;;24.55;;
27003;SDS011;14546;47.590;19.022;2022-11-18T12:20:56;41.95;;;24.70;;
27003;SDS011;14546;47.590;19.022;2022-11-18T12:28:29;38.83;;;23.40;;
27003;SDS011;14546;47.590;19.022;2022-11-18T12:31:25;41.53;;;24.20;;
27003;SDS011;14546;47.590;19.022;2022-11-18T12:33:51;32.83;;;20.63;;
27003;SDS011;14546;47.590;19.022;2022-11-18T12:36:34;33.08;;;21.20;;
27003;SDS011;14546;47.590;19.022;2022-11-18T12:44:29;32.97;;;20.23;;
27003;SDS011;14546;47.590;19.022;2022-11-18T12:46:56;36.88;;;21.35;;
27003;SDS011;14546;47.590;19.022;2022-11-18T12:51:49;45.55;;;25.92;;
27003;SDS011;14546;47.590;19.022;2022-11-18T12:54:20;56.83;;;32.15;;
27003;SDS011;14546;47.590;19.022;2022-11-18T12:56:47;54.28;;;31.52;;
27003;SDS011;14546;47.590;19.022;2022-11-18T12:59:14;48.20;;;28.63;;
27003;SDS011;14546;47.590;19.022;2022-11-18T13:01:40;38.75;;;22.90;;
27003;SDS011;14546;47.590;19.022;2022-11-18T13:06:33;39.30;;;22.55;;
27003;SDS011;14546;47.590;19.022;2022-11-18T13:09:01;35.00;;;21.23;;
27003;SDS011;14546;47.590;19.022;2022-11-18T13:11:31;55.58;;;23.38;;
27003;SDS011;14546;47.590;19.022;2022-11-18T13:14:16;35.38;;;20.95;;
27003;SDS011;14546;47.590;19.022;2022-11-18T13:17:02;42.10;;;23.60;;
27003;SDS011;14546;47.590;19.022;2022-11-18T13:20:17;48.53;;;26.48;;
27003;SDS011;14546;47.590;19.022;2022-11-18T13:22:50;45.50;;;26.15;;
27003;SDS011;14546;47.590;19.022;2022-11-18T13:25:34;46.40;;;27.27;;
27003;SDS011;14546;47.590;19.022;2022-11-18T13:30:27;45.70;;;27.00;;
27003;SDS011;14546;47.590;19.022;2022-11-18T13:32:54;41.47;;;25.77;;
27003;SDS011;14546;47.590;19.022;2022-11-18T13:35:22;38.28;;;25.77;;
27003;SDS011;14546;47.590;19.022;2022-11-18T13:40:27;42.17;;;23.75;;
27003;SDS011;14546;47.590;19.022;2022-11-18T13:42:53;36.83;;;23.63;;
27003;SDS011;14546;47.590;19.022;2022-11-18T13:45:20;35.65;;;22.05;;
27003;SDS011;14546;47.590;19.022;2022-11-18T13:50:46;36.05;;;22.63;;
27003;SDS011;14546;47.590;19.022;2022-11-18T13:55:45;36.50;;;22.85;;
27003;SDS011;14546;47.590;19.022;2022-11-18T13:58:22;40.00;;;25.50;;
27003;SDS011;14546;47.590;19.022;2022-11-18T14:00:55;41.67;;;27.65;;
27003;SDS011;14546;47.590;19.022;2022-11-18T14:03:35;44.67;;;28.27;;
27003;SDS011;14546;47.590;19.022;2022-11-18T14:06:04;45.80;;;27.30;;
27003;SDS011;14546;47.590;19.022;2022-11-18T14:08:31;44.28;;;26.65;;
27003;SDS011;14546;47.590;19.022;2022-11-18T14:10:57;46.22;;;27.40;;
27003;SDS011;14546;47.590;19.022;2022-11-18T14:13:28;50.85;;;28.05;;
27003;SDS011;14546;47.590;19.022;2022-11-18T14:16:28;50.83;;;29.23;;
27003;SDS011;14546;47.590;19.022;2022-11-18T14:18:43;54.78;;;29.42;;
27003;SDS011;14546;47.590;19.022;2022-11-18T14:21:10;54.00;;;31.15;;
27003;SDS011;14546;47.590;19.022;2022-11-18T14:23:36;54.75;;;30.58;;
27003;SDS011;14546;47.590;19.022;2022-11-18T14:26:06;55.92;;;31.63;;
27003;SDS011;14546;47.590;19.022;2022-11-18T14:28:33;60.95;;;32.55;;
27003;SDS011;14546;47.590;19.022;2022-11-18T14:36:30;54.20;;;29.73;;
27003;SDS011;14546;47.590;19.022;2022-11-18T14:38:56;50.88;;;30.98;;
27003;SDS011;14546;47.590;19.022;2022-11-18T14:41:22;54.03;;;29.05;;
27003;SDS011;14546;47.590;19.022;2022-11-18T14:44:07;59.40;;;30.50;;
27003;SDS011;14546;47.590;19.022;2022-11-18T14:46:33;55.20;;;31.27;;
27003;SDS011;14546;47.590;19.022;2022-11-18T14:49:02;55.83;;;30.42;;
27003;SDS011;14546;47.590;19.022;2022-11-18T14:51:29;50.83;;;28.90;;
27003;SDS011;14546;47.590;19.022;2022-11-18T14:53:55;48.85;;;29.95;;
27003;SDS011;14546;47.590;19.022;2022-11-18T14:56:27;52.25;;;29.25;;
27003;SDS011;14546;47.590;19.022;2022-11-18T14:58:54;53.40;;;30.05;;
27003;SDS011;14546;47.590;19.022;2022-11-18T15:01:20;64.50;;;33.53;;
27003;SDS011;14546;47.590;19.022;2022-11-18T15:03:49;58.20;;;31.40;;
27003;SDS011;14546;47.590;19.022;2022-11-18T15:06:15;66.13;;;32.47;;
27003;SDS011;14546;47.590;19.022;2022-11-18T15:08:42;64.30;;;31.75;;
27003;SDS011;14546;47.590;19.022;2022-11-18T15:11:09;64.25;;;33.08;;
27003;SDS011;14546;47.590;19.022;2022-11-18T15:13:35;63.63;;;32.95;;
27003;SDS011;14546;47.590;19.022;2022-11-18T15:16:08;55.10;;;30.63;;
27003;SDS011;14546;47.590;19.022;2022-11-18T15:18:35;64.05;;;32.42;;
27003;SDS011;14546;47.590;19.022;2022-11-18T15:21:01;61.88;;;32.53;;
27003;SDS011;14546;47.590;19.022;2022-11-18T15:23:27;73.70;;;34.00;;
27003;SDS011;14546;47.590;19.022;2022-11-18T15:25:53;69.50;;;34.65;;
27003;SDS011;14546;47.590;19.022;2022-11-18T15:28:19;68.55;;;33.67;;
27003;SDS011;14546;47.590;19.022;2022-11-18T15:30:45;70.68;;;34.80;;
27003;SDS011;14546;47.590;19.022;2022-11-18T15:33:11;69.82;;;34.78;;
27003;SDS011;14546;47.590;19.022;2022-11-18T15:35:37;71.10;;;34.47;;
27003;SDS011;14546;47.590;19.022;2022-11-18T15:38:04;68.68;;;34.35;;
27003;SDS011;14546;47.590;19.022;2022-11-18T15:40:30;67.00;;;34.55;;
27003;SDS011;14546;47.590;19.022;2022-11-18T15:42:56;70.93;;;35.75;;
27003;SDS011;14546;47.590;19.022;2022-11-18T15:45:22;68.72;;;35.33;;
27003;SDS011;14546;47.590;19.022;2022-11-18T15:47:50;66.50;;;33.92;;
27003;SDS011;14546;47.590;19.022;2022-11-18T15:50:16;66.22;;;34.22;;
27003;SDS011;14546;47.590;19.022;2022-11-18T15:52:42;65.50;;;32.53;;
27003;SDS011;14546;47.590;19.022;2022-11-18T15:55:08;62.83;;;33.03;;
27003;SDS011;14546;47.590;19.022;2022-11-18T15:57:34;59.53;;;32.30;;
27003;SDS011;14546;47.590;19.022;2022-11-18T16:00:00;62.83;;;32.55;;
27003;SDS011;14546;47.590;19.022;2022-11-18T16:02:26;59.92;;;32.65;;